Thunder radar more information blitzortung!


Löydät sääaseman tiedot myös:

European Weather Network

Finland Weather Exchange

Weather Underground

AWEKAS



Weather Underground säähistoriasivu

Päivittäin yhteenveto Lokakuu 28, 2017 Yksiköt:  Metriset    Englantilaiset   Molemmat
« Edellinen Päivä
Seuraava Päivä »
Päivittäin Viikoittain Kuukausittain Vuosittain Mukautettu
  Korkea: Matala: Keskiarvo:
Lämpötila: -17.8 °C -17.3 °C -16.5 °C
Kastepiste: -17.8 °C -17.6 °C -16.7 °C
Kosteus: Humidity % 97 % 97 %
Tuulen nopeus: 0 km/h 0 km/h 4.2 km/h
Tuulenpuuska: 0 km/h - -
Tuuli:- - South
Ilmanpaine: 0 hPa 33040.6 hPa -
Sade: 7.62 mm    
Historical Graphs
 
 
Taulukkotiedot Lokakuu 28, 2017
Aika Lämpötila Kastepiste Ilmanpaine Tuuli Tuulen nopeus Tuulenpuuska Kosteus Sademäärä (tunneittain)
-17.8 °C -17.8 °C 0 hPa Calm     Humidity % 0 mm
00:00 -17.3 °C -17.6 °C 33788.9 hPa SSW 12.9 km/h 25.9 km/h 97 % 0 mm
00:15 -17.3 °C -17.5 °C 33775.4 hPa SSW 12.9 km/h 25.9 km/h 97 % 0 mm
00:30 -17.3 °C -17.5 °C 33765.2 hPa SSW 12.9 km/h 28.5 km/h 97 % 0 mm
00:45 -17.3 °C -17.5 °C 33751.6 hPa SSW 12.9 km/h 28.5 km/h 97 % 0 mm
01:00 -17.2 °C -17.4 °C 33741.5 hPa SSW 10.3 km/h 20.8 km/h 97 % 0 mm
01:15 -17.2 °C -17.4 °C 33717.8 hPa SSW 10.3 km/h 25.9 km/h 97 % 0 mm
01:30 -17.1 °C -17.4 °C 33707.6 hPa SSW 10.3 km/h 25.9 km/h 97 % 0 mm
01:45 -17.1 °C -17.4 °C 33694.1 hPa South 7.7 km/h 33.6 km/h 97 % 0 mm
02:00 -17.1 °C -17.3 °C 33683.9 hPa SSW 5.1 km/h 18.2 km/h 98 % 0 mm
02:15 -17.1 °C -17.2 °C 33673.8 hPa SSW 7.7 km/h 20.8 km/h 98 % 0 mm
02:30 -17 °C -17.2 °C 33660.2 hPa SSW 10.3 km/h 23.3 km/h 98 % 0 mm
02:45 -17 °C -17.1 °C 33650.1 hPa SSW 10.3 km/h 23.3 km/h 98 % 0 mm
03:00 -17 °C -17.1 °C 33639.9 hPa SSW 10.3 km/h 23.3 km/h 98 % 0 mm
03:15 -16.9 °C -17.1 °C 33626.4 hPa SSW 7.7 km/h 23.3 km/h 98 % 0 mm
03:30 -16.9 °C -17.1 °C 33616.2 hPa SSW 10.3 km/h 28.5 km/h 98 % 7.62 mm
03:45 -16.8 °C -17 °C 33592.5 hPa SSW 5.1 km/h 15.6 km/h 98 % 7.62 mm
04:00 -16.9 °C -17.1 °C 33582.3 hPa South 5.1 km/h 15.6 km/h 98 % 7.62 mm
04:15 -16.9 °C -17.1 °C 33568.8 hPa South 5.1 km/h 12.9 km/h 98 % 7.62 mm
04:30 -16.8 °C -17 °C 33558.6 hPa South 5.1 km/h 18.2 km/h 98 % 0 mm
05:00 -16.8 °C -16.9 °C 33534.9 hPa SSW 7.7 km/h 20.8 km/h 98 % 0 mm
05:15 -16.7 °C -16.8 °C 33524.8 hPa SSW 7.7 km/h 18.2 km/h 98 % 0 mm
05:30 -16.6 °C -16.8 °C 33511.2 hPa South 7.7 km/h 18.2 km/h 98 % 0 mm
05:45 -16.6 °C -16.8 °C 33501.1 hPa SSW 7.7 km/h 18.2 km/h 98 % 0 mm
06:00 -16.6 °C -16.8 °C 33477.4 hPa South 7.7 km/h 23.3 km/h 98 % 0 mm
06:15 -16.6 °C -16.8 °C 33477.4 hPa SSW 10.3 km/h 20.8 km/h 98 % 0 mm
06:30 -16.6 °C -16.7 °C 33453.7 hPa SSW 7.7 km/h 20.8 km/h 98 % 0 mm
06:45 -16.5 °C -16.7 °C 33453.7 hPa SSW 10.3 km/h 23.3 km/h 98 % 0 mm
07:00 -16.5 °C -16.6 °C 33443.5 hPa SSW 10.3 km/h 28.5 km/h 98 % 0 mm
07:15 -16.5 °C -16.6 °C 33419.8 hPa SSW 10.3 km/h 38.8 km/h 98 % 0 mm
07:30 -16.4 °C -16.6 °C 33409.7 hPa SSW 10.3 km/h 23.3 km/h 98 % 0 mm
07:45 -16.4 °C -16.6 °C 33396.1 hPa South 10.3 km/h 25.9 km/h 98 % 0 mm
08:00 -16.4 °C -16.6 °C 33386 hPa SSW 7.7 km/h 23.3 km/h 98 % 0 mm
08:15 -16.4 °C -16.6 °C 33386 hPa South 7.7 km/h 31.1 km/h 98 % 0 mm
08:30 -16.4 °C -16.6 °C 33375.8 hPa South 7.7 km/h 20.8 km/h 98 % 0 mm
08:45 -16.4 °C -16.6 °C 33362.3 hPa South 5.1 km/h 18.2 km/h 98 % 0 mm
09:00 -16.4 °C -16.6 °C 33362.3 hPa SSW 5.1 km/h 23.3 km/h 98 % 0 mm
09:15 -16.4 °C -16.6 °C 33362.3 hPa South 7.7 km/h 23.3 km/h 98 % 0 mm
09:30 -16.4 °C -16.6 °C 33352.1 hPa South 5.1 km/h 18.2 km/h 98 % 0 mm
10:00 -16.4 °C -16.6 °C 33338.6 hPa South 2.6 km/h 12.9 km/h 98 % 0 mm
10:15 -16.4 °C -16.6 °C 33338.6 hPa South 5.1 km/h 18.2 km/h 98 % 0 mm
10:30 -16.4 °C -16.6 °C 33328.4 hPa South 2.6 km/h 18.2 km/h 98 % 0 mm
10:45 -16.3 °C -16.4 °C 33328.4 hPa South 5.1 km/h 18.2 km/h 98 % 0 mm
11:00 -16.2 °C -16.4 °C 33318.2 hPa South 2.6 km/h 20.8 km/h 98 % 0 mm
11:15 -16.2 °C -16.4 °C 33318.2 hPa SSW 2.6 km/h 18.2 km/h 98 % 0 mm
11:30 -16.2 °C -16.4 °C 33304.7 hPa South 2.6 km/h 12.9 km/h 98 % 0 mm
11:45 -16.2 °C -16.4 °C 33304.7 hPa SSW 5.1 km/h 18.2 km/h 98 % 0 mm
12:00 -16.2 °C -16.3 °C 33294.5 hPa South 2.6 km/h 15.6 km/h 98 % 0 mm
12:15 -16.1 °C -16.3 °C 33284.4 hPa South 5.1 km/h 15.6 km/h 98 % 0 mm
12:30 -16.1 °C -16.2 °C 33284.4 hPa SSW 5.1 km/h 15.6 km/h 98 % 0 mm
12:45 -16.1 °C -16.2 °C 33270.8 hPa South 5.1 km/h 18.2 km/h 98 % 0 mm
13:00 -16.1 °C -16.2 °C 33270.8 hPa South 2.6 km/h 12.9 km/h 98 % 0 mm
13:30 -16.1 °C -16.2 °C 33260.7 hPa SSE 2.6 km/h 15.6 km/h 98 % 0 mm
13:45 -16.1 °C -16.2 °C 33247.1 hPa SSE 2.6 km/h 12.9 km/h 98 % 0 mm
14:00 -16.1 °C -16.2 °C 33247.1 hPa Calm   15.6 km/h 98 % 0 mm
14:15 -16 °C -16.2 °C 33237 hPa SSE 2.6 km/h 15.6 km/h 98 % 0 mm
14:30 -16 °C -16.2 °C 33237 hPa Calm   18.2 km/h 98 % 0 mm
14:45 -16 °C -16.2 °C 33226.8 hPa SSE 2.6 km/h 15.6 km/h 98 % 0 mm
15:00 -16 °C -16.2 °C 33213.3 hPa South 2.6 km/h 15.6 km/h 98 % 0 mm
15:15 -16 °C -16.2 °C 33213.3 hPa South 2.6 km/h 12.9 km/h 98 % 0 mm
15:30 -16 °C -16.2 °C 33213.3 hPa South 2.6 km/h 12.9 km/h 98 % 0 mm
15:45 -16.1 °C -16.2 °C 33203.1 hPa Calm   12.9 km/h 98 % 0 mm
16:00 -16.1 °C -16.2 °C 33189.6 hPa Calm   10.3 km/h 98 % 0 mm
16:15 -16.1 °C -16.2 °C 33179.4 hPa Calm   10.3 km/h 98 % 0 mm
16:30 -16.2 °C -16.3 °C 33179.4 hPa Calm   10.3 km/h 98 % 0 mm
16:45 -16.2 °C -16.3 °C 33169.3 hPa Calm   2.6 km/h 98 % 0 mm
17:00 -16.2 °C -16.4 °C 33169.3 hPa Calm   5.1 km/h 98 % 0 mm
17:15 -16.2 °C -16.4 °C 33155.7 hPa Calm   10.3 km/h 98 % 0 mm
17:30 -16.3 °C -16.4 °C 33155.7 hPa Calm   5.1 km/h 98 % 0 mm
17:45 -16.3 °C -16.4 °C 33145.6 hPa Calm   10.3 km/h 98 % 0 mm
18:00 -16.3 °C -16.5 °C 33145.6 hPa Calm   10.3 km/h 98 % 0 mm
18:15 -16.3 °C -16.5 °C 33135.4 hPa Calm   12.9 km/h 98 % 0 mm
18:30 -16.4 °C -16.6 °C 33121.9 hPa Calm   7.7 km/h 98 % 0 mm
18:45 -16.4 °C -16.6 °C 33121.9 hPa South 2.6 km/h 10.3 km/h 98 % 0 mm
19:00 -16.4 °C -16.6 °C 33111.7 hPa Calm   2.6 km/h 98 % 0 mm
19:15 -16.4 °C -16.6 °C 33111.7 hPa Calm   10.3 km/h 98 % 0 mm
19:30 -16.4 °C -16.6 °C 33111.7 hPa Calm   10.3 km/h 98 % 0 mm
19:45 -16.4 °C -16.6 °C 33098.2 hPa Calm   10.3 km/h 98 % 0 mm
20:00 -16.4 °C -16.6 °C 33098.2 hPa Calm   2.6 km/h 98 % 0 mm
20:15 -16.4 °C -16.6 °C 33098.2 hPa Calm     98 % 0 mm
20:30 -16.5 °C -16.6 °C 33088 hPa Calm     98 % 0 mm
20:45 -16.5 °C -16.7 °C 33088 hPa Calm     98 % 0 mm
21:00 -16.6 °C -16.7 °C 33088 hPa Calm     98 % 0 mm
21:15 -16.6 °C -16.7 °C 33077.8 hPa Calm   5.1 km/h 98 % 0 mm
21:30 -16.6 °C -16.7 °C 33077.8 hPa Calm   7.7 km/h 98 % 0 mm
21:45 -16.6 °C -16.7 °C 33077.8 hPa Calm     98 % 0 mm
22:00 -16.6 °C -16.7 °C 33064.3 hPa Calm     98 % 0 mm
22:15 -16.6 °C -16.8 °C 33064.3 hPa Calm     98 % 0 mm
22:30 -16.7 °C -16.8 °C 33054.1 hPa Calm     98 % 0 mm
22:45 -16.7 °C -16.8 °C 33054.1 hPa Calm     98 % 0 mm
23:00 -16.7 °C -16.8 °C 33054.1 hPa Calm     98 % 0 mm
23:15 -16.7 °C -16.8 °C 33054.1 hPa Calm     98 % 0 mm
23:30 -16.7 °C -16.8 °C 33054.1 hPa Calm     98 % 0 mm
23:45 -16.6 °C -16.8 °C 33040.6 hPa Calm     98 % 0 mm
Esan sääasema
Terveisin Weather Underground - 2.75 mb

Alkuperäinen skripti  Jim McMurry - jmcmurry@mwt.net Sovitettu myös templatelle  Wim van der Kuil - Leuven-Template.eu

Laitteet joita käytämme:

Sääasema
Davis VP2

Sääasemaohjelma
Cumulus

Sääaseman tietokone
Asus EeePC

Palveluntarjoaja
Suncomet

Davis VP2

Cumulus

Asus EeePC

Suncomet